Time;durP1;ratioP1;P1;durP2;ratioP2;P2;SDS_P1;SDS_P2;PMS_P1;PMS_P2;Temp;Humidity;BMP_temperature;BMP_pressure;BME280_temperature;BME280_humidity;BME280_pressure;Samples;Min_cycle;Max_cycle;Signal;HPM_P1;HPM_P2
2023/08/05 00:00:14;;;;;;;5.53;3.70;;;13.80;99.90;;;;;;5025884;28;20101;-85
2023/08/05 00:02:40;;;;;;;6.43;3.78;;;13.70;99.90;;;;;;5051784;28;20127;-84
2023/08/05 00:05:07;;;;;;;4.93;3.45;;;13.70;99.90;;;;;;5051581;28;20059;-84
2023/08/05 00:07:33;;;;;;;5.88;3.70;;;13.60;99.90;;;;;;5067624;28;20381;-84
2023/08/05 00:09:58;;;;;;;6.90;4.10;;;13.60;99.90;;;;;;5045951;28;20043;-84
2023/08/05 00:12:24;;;;;;;5.53;4.32;;;13.60;99.90;;;;;;5051835;28;20040;-84
2023/08/05 00:14:50;;;;;;;4.53;3.60;;;13.60;99.90;;;;;;5019187;28;20168;-84
2023/08/05 00:17:15;;;;;;;7.95;3.85;;;13.60;99.90;;;;;;5046533;28;20067;-85
2023/08/05 00:19:44;;;;;;;6.47;3.80;;;13.60;99.90;;;;;;5048023;28;20048;-84
2023/08/05 00:22:10;;;;;;;5.07;3.70;;;13.60;99.90;;;;;;5049939;28;20054;-84
2023/08/05 00:24:37;;;;;;;5.57;4.03;;;13.60;99.90;;;;;;5062353;28;20045;-84
2023/08/05 00:27:03;;;;;;;8.00;4.35;;;13.60;99.90;;;;;;5035241;28;20048;-85
2023/08/05 00:29:30;;;;;;;6.05;4.10;;;13.60;99.90;;;;;;5022457;28;20037;-84
2023/08/05 00:31:56;;;;;;;9.02;4.25;;;13.60;99.90;;;;;;5010384;28;20076;-86
2023/08/05 00:34:22;;;;;;;6.13;4.25;;;13.60;99.90;;;;;;5037544;28;20075;-85
2023/08/05 00:36:47;;;;;;;8.25;4.20;;;13.60;99.90;;;;;;5052430;28;20492;-85
2023/08/05 00:39:14;;;;;;;7.38;4.00;;;13.60;99.90;;;;;;5052252;28;20125;-85
2023/08/05 00:41:39;;;;;;;5.47;4.18;;;13.70;99.90;;;;;;5036528;28;20029;-86
2023/08/05 00:44:05;;;;;;;4.78;4.28;;;13.70;99.90;;;;;;5034892;28;20037;-85
2023/08/05 00:46:31;;;;;;;7.80;4.45;;;13.60;99.90;;;;;;5038078;28;20033;-85
2023/08/05 00:48:57;;;;;;;7.50;4.22;;;13.70;99.90;;;;;;5041880;28;20083;-85
2023/08/05 00:51:23;;;;;;;7.68;4.68;;;13.60;99.90;;;;;;5053439;28;20040;-84
2023/08/05 00:53:50;;;;;;;7.45;3.85;;;13.70;99.90;;;;;;5018255;28;20048;-85
2023/08/05 00:56:16;;;;;;;8.23;4.30;;;13.70;99.90;;;;;;5030616;28;20044;-86
2023/08/05 00:58:45;;;;;;;7.00;4.30;;;13.60;99.90;;;;;;5024885;28;20037;-85
2023/08/05 01:01:11;;;;;;;4.47;3.47;;;13.60;99.90;;;;;;5058746;28;20123;-85
2023/08/05 01:03:37;;;;;;;7.15;4.55;;;13.60;99.90;;;;;;5027465;28;20483;-85
2023/08/05 01:06:05;;;;;;;7.65;4.40;;;13.60;99.90;;;;;;5034822;28;20033;-86
2023/08/05 01:08:32;;;;;;;7.25;3.97;;;13.60;99.90;;;;;;5051331;28;20040;-85
2023/08/05 01:11:02;;;;;;;6.75;4.55;;;13.60;99.90;;;;;;5035417;28;20125;-85
2023/08/05 01:13:30;;;;;;;7.28;4.68;;;13.60;99.90;;;;;;5052808;28;20082;-85
2023/08/05 01:15:56;;;;;;;6.38;4.53;;;13.60;99.90;;;;;;5063147;28;20356;-85
2023/08/05 01:18:24;;;;;;;5.53;4.15;;;13.60;99.90;;;;;;5039624;28;20051;-85
2023/08/05 01:20:55;;;;;;;7.65;4.30;;;13.60;99.90;;;;;;5043163;28;20045;-85
2023/08/05 01:23:37;;;;;;;7.38;4.50;;;13.60;99.90;;;;;;5057517;28;20120;-85
2023/08/05 01:26:05;;;;;;;5.00;4.07;;;13.60;99.90;;;;;;5059169;28;20041;-85
2023/08/05 01:28:32;;;;;;;8.10;4.22;;;13.60;99.90;;;;;;5034069;28;20044;-85
2023/08/05 01:31:00;;;;;;;7.22;4.53;;;13.60;99.90;;;;;;5020935;28;20043;-85
2023/08/05 01:33:27;;;;;;;6.80;5.00;;;13.60;99.90;;;;;;5056577;28;20392;-85
2023/08/05 01:35:52;;;;;;;8.32;5.00;;;13.60;99.90;;;;;;5017103;28;20041;-85
2023/08/05 01:38:18;;;;;;;6.70;4.80;;;13.60;99.90;;;;;;5017563;28;20064;-85
2023/08/05 01:40:45;;;;;;;9.15;4.90;;;13.60;99.90;;;;;;5034411;28;20136;-85
2023/08/05 01:43:11;;;;;;;8.68;4.55;;;13.60;99.90;;;;;;5034432;28;20602;-85
2023/08/05 01:45:37;;;;;;;7.88;4.28;;;13.60;99.90;;;;;;5060960;28;20036;-85
2023/08/05 01:48:03;;;;;;;6.68;4.90;;;13.60;99.90;;;;;;5026110;28;20040;-85
2023/08/05 01:50:28;;;;;;;6.10;4.78;;;13.60;99.90;;;;;;5018757;28;20102;-85
2023/08/05 01:52:54;;;;;;;6.75;4.03;;;13.60;99.90;;;;;;5031936;28;20120;-85
2023/08/05 01:55:20;;;;;;;8.60;4.57;;;13.70;99.90;;;;;;5053982;28;20033;-85
2023/08/05 01:57:46;;;;;;;8.65;4.40;;;13.70;99.90;;;;;;5037649;28;20084;-85
2023/08/05 02:00:12;;;;;;;7.60;4.72;;;13.70;99.90;;;;;;5037705;28;20130;-85
2023/08/05 02:02:38;;;;;;;6.13;4.45;;;13.70;99.90;;;;;;5037979;28;20037;-85
2023/08/05 02:05:04;;;;;;;7.45;4.85;;;13.70;99.90;;;;;;5037747;28;20378;-85
2023/08/05 02:07:30;;;;;;;6.10;4.63;;;13.70;99.90;;;;;;5037694;28;20037;-85
2023/08/05 02:09:55;;;;;;;8.35;4.90;;;13.60;99.90;;;;;;5037828;28;20048;-85
2023/08/05 02:12:21;;;;;;;7.60;4.70;;;13.60;99.90;;;;;;5020922;28;20523;-85
2023/08/05 02:14:47;;;;;;;8.55;4.78;;;13.60;99.90;;;;;;5067742;28;20041;-85
2023/08/05 02:17:13;;;;;;;9.98;4.95;;;13.60;99.90;;;;;;5036867;28;20132;-85
2023/08/05 02:19:38;;;;;;;7.63;5.10;;;13.50;99.90;;;;;;5021169;28;20120;-85
2023/08/05 02:22:04;;;;;;;7.65;5.38;;;13.50;99.90;;;;;;5037604;28;20487;-85
2023/08/05 02:24:30;;;;;;;10.07;5.25;;;13.50;99.90;;;;;;5060833;28;20128;-85
2023/08/05 02:26:56;;;;;;;7.82;5.38;;;13.40;99.90;;;;;;5024953;28;20072;-85
2023/08/05 02:29:21;;;;;;;10.23;5.28;;;13.30;99.90;;;;;;5054031;28;20076;-85
2023/08/05 02:31:47;;;;;;;10.00;5.60;;;13.30;99.90;;;;;;5025393;28;20492;-85
2023/08/05 02:34:13;;;;;;;9.07;5.88;;;13.30;99.90;;;;;;5052143;28;20040;-85
2023/08/05 02:36:38;;;;;;;7.53;5.68;;;13.30;99.90;;;;;;5037025;28;20044;-85
2023/08/05 02:39:04;;;;;;;10.20;5.93;;;13.30;99.90;;;;;;5044094;28;20478;-85
2023/08/05 02:41:30;;;;;;;9.48;6.13;;;13.30;99.90;;;;;;5057278;28;20033;-85
2023/08/05 02:43:56;;;;;;;9.57;5.88;;;13.30;99.90;;;;;;5036144;28;20055;-86
2023/08/05 02:46:22;;;;;;;8.88;6.47;;;13.30;99.90;;;;;;5050047;28;20059;-86
2023/08/05 02:48:47;;;;;;;8.07;6.30;;;13.30;99.90;;;;;;5035994;28;20059;-84
2023/08/05 02:51:13;;;;;;;8.20;5.57;;;13.30;99.90;;;;;;5020217;28;20048;-85
2023/08/05 02:53:39;;;;;;;9.40;6.20;;;13.20;99.90;;;;;;5023860;28;20481;-85
2023/08/05 02:56:05;;;;;;;10.23;6.68;;;13.20;99.90;;;;;;5050888;28;20124;-84
2023/08/05 02:58:30;;;;;;;8.57;6.38;;;13.10;99.90;;;;;;5038044;28;20055;-84
2023/08/05 03:01:05;;;;;;;10.00;5.28;;;13.10;99.90;;;;;;5035850;28;20033;-85
2023/08/05 03:03:30;;;;;;;11.20;6.25;;;13.10;99.90;;;;;;5036284;28;20041;-85
2023/08/05 03:05:56;;;;;;;11.95;6.45;;;13.00;99.90;;;;;;5059295;28;20423;-84
2023/08/05 03:08:22;;;;;;;9.32;5.60;;;13.00;99.90;;;;;;5063493;28;20508;-85
2023/08/05 03:10:59;;;;;;;7.70;5.90;;;13.00;99.90;;;;;;5036029;28;20041;-84
2023/08/05 03:13:25;;;;;;;9.88;6.30;;;13.00;99.90;;;;;;5052433;28;20040;-85
2023/08/05 03:15:51;;;;;;;9.23;5.72;;;13.00;99.90;;;;;;5040987;28;20037;-85
2023/08/05 03:18:17;;;;;;;7.65;5.53;;;13.00;99.90;;;;;;5072915;28;20048;-84
2023/08/05 03:20:43;;;;;;;9.98;6.25;;;12.90;99.90;;;;;;5036205;28;20033;-85
2023/08/05 03:23:09;;;;;;;8.85;5.40;;;12.90;99.90;;;;;;5059640;28;20086;-85
2023/08/05 03:25:34;;;;;;;7.95;5.80;;;12.80;99.90;;;;;;5037430;28;20047;-85
2023/08/05 03:28:00;;;;;;;8.65;5.55;;;12.80;99.90;;;;;;5045630;28;20438;-85
2023/08/05 03:30:26;;;;;;;9.77;5.82;;;12.80;99.90;;;;;;5025317;28;20124;-84
2023/08/05 03:32:51;;;;;;;10.20;5.80;;;12.80;99.90;;;;;;5024276;28;20119;-85
2023/08/05 03:35:17;;;;;;;8.75;5.63;;;12.80;99.90;;;;;;5042611;28;20041;-85
2023/08/05 03:37:45;;;;;;;7.95;5.32;;;12.80;99.90;;;;;;5020064;28;20065;-84
2023/08/05 03:40:11;;;;;;;7.93;5.65;;;12.70;99.90;;;;;;5054975;28;20052;-85
2023/08/05 03:42:37;;;;;;;15.63;5.63;;;12.70;99.90;;;;;;5036325;28;20075;-85
2023/08/05 03:45:04;;;;;;;6.80;5.40;;;12.70;99.90;;;;;;5028246;28;20060;-84
2023/08/05 03:47:30;;;;;;;6.70;5.60;;;12.70;99.90;;;;;;5042509;28;20055;-84
2023/08/05 03:49:56;;;;;;;7.40;5.75;;;12.70;99.90;;;;;;5060234;28;20048;-84
2023/08/05 03:52:22;;;;;;;8.38;5.93;;;12.70;99.90;;;;;;5032136;28;20400;-84
2023/08/05 03:54:47;;;;;;;8.00;5.75;;;12.70;99.90;;;;;;5044656;28;20043;-84
2023/08/05 03:57:13;;;;;;;9.75;6.13;;;12.70;99.90;;;;;;5048862;28;20107;-84
2023/08/05 03:59:42;;;;;;;11.80;6.47;;;12.70;99.90;;;;;;5042808;28;20036;-84
2023/08/05 04:02:07;;;;;;;9.30;6.38;;;12.70;99.90;;;;;;5040425;28;20423;-84
2023/08/05 04:04:33;;;;;;;11.00;6.70;;;12.80;99.90;;;;;;5019470;28;20059;-84
2023/08/05 04:06:59;;;;;;;7.35;5.97;;;12.80;99.90;;;;;;5035310;28;20068;-84
2023/08/05 04:09:25;;;;;;;11.43;6.65;;;12.80;99.90;;;;;;5035326;28;20053;-84
2023/08/05 04:11:51;;;;;;;8.38;6.55;;;12.80;99.90;;;;;;5044771;28;20056;-85
2023/08/05 04:14:20;;;;;;;10.15;6.63;;;12.80;99.90;;;;;;5035065;28;20045;-84
2023/08/05 04:16:47;;;;;;;9.95;6.20;;;12.90;99.90;;;;;;5034350;28;20369;-85
2023/08/05 04:19:15;;;;;;;10.18;6.20;;;12.90;99.90;;;;;;5037578;28;20044;-85
2023/08/05 04:21:47;;;;;;;9.63;6.70;;;12.90;99.90;;;;;;5021663;28;20088;-86
2023/08/05 04:24:14;;;;;;;9.50;6.47;;;12.90;99.90;;;;;;5018622;28;20484;-86
2023/08/05 04:26:40;;;;;;;9.95;6.30;;;12.90;99.90;;;;;;5028953;28;20032;-85
2023/08/05 04:29:06;;;;;;;11.27;6.40;;;12.90;99.90;;;;;;5052343;28;20566;-85
2023/08/05 04:31:33;;;;;;;8.20;5.90;;;12.90;99.90;;;;;;5026116;28;20387;-85
2023/08/05 04:33:58;;;;;;;9.25;6.47;;;12.90;99.90;;;;;;5058545;28;20037;-85
2023/08/05 04:36:24;;;;;;;10.35;6.50;;;12.90;99.90;;;;;;5044915;28;20396;-85
2023/08/05 04:38:50;;;;;;;8.82;6.22;;;13.00;99.90;;;;;;5044031;28;20051;-85
2023/08/05 04:41:15;;;;;;;11.00;5.95;;;12.90;99.90;;;;;;5047201;28;20036;-85
2023/08/05 04:43:41;;;;;;;10.32;6.15;;;12.90;99.90;;;;;;5054285;28;20078;-85
2023/08/05 04:46:07;;;;;;;8.55;6.53;;;13.00;99.90;;;;;;5011300;28;20044;-85
2023/08/05 04:48:33;;;;;;;9.68;6.40;;;12.90;99.90;;;;;;5050090;28;20028;-86
2023/08/05 04:50:59;;;;;;;8.88;6.72;;;13.00;99.90;;;;;;5023420;28;20503;-85
2023/08/05 04:53:25;;;;;;;10.50;6.35;;;13.10;99.90;;;;;;5050288;28;20067;-85
2023/08/05 04:55:50;;;;;;;15.60;6.63;;;13.10;99.90;;;;;;5039967;28;20134;-84
2023/08/05 04:58:16;;;;;;;9.20;6.18;;;13.10;99.90;;;;;;5033614;28;20073;-86
2023/08/05 05:00:42;;;;;;;11.82;6.70;;;13.20;99.90;;;;;;5047566;28;20036;-86
2023/08/05 05:03:07;;;;;;;8.63;6.72;;;13.30;99.90;;;;;;5018107;28;20033;-86
2023/08/05 05:05:35;;;;;;;7.95;6.10;;;13.30;99.90;;;;;;5045166;28;20444;-86
2023/08/05 05:08:01;;;;;;;10.05;6.32;;;13.30;99.90;;;;;;5050192;28;20083;-86
2023/08/05 05:10:26;;;;;;;8.15;6.00;;;13.30;99.90;;;;;;5052219;28;20041;-86
2023/08/05 05:12:52;;;;;;;9.73;6.07;;;13.30;99.90;;;;;;5022957;28;20037;-85
2023/08/05 05:15:21;;;;;;;9.00;5.85;;;13.40;99.90;;;;;;5034784;28;20068;-85
2023/08/05 05:17:50;;;;;;;9.18;5.75;;;13.40;99.90;;;;;;5038757;28;20067;-85
2023/08/05 05:20:16;;;;;;;7.35;4.25;;;13.50;99.90;;;;;;5033027;28;20037;-85
2023/08/05 05:22:41;;;;;;;7.70;4.90;;;13.50;99.90;;;;;;5038520;28;20145;-85
2023/08/05 05:25:07;;;;;;;7.55;4.93;;;13.60;99.90;;;;;;5032639;28;20550;-84
2023/08/05 05:27:34;;;;;;;8.13;4.72;;;13.70;99.90;;;;;;5034524;28;20029;-84
2023/08/05 05:30:00;;;;;;;6.47;4.57;;;13.80;99.90;;;;;;5021033;28;20102;-85
2023/08/05 05:32:26;;;;;;;8.35;5.13;;;13.80;99.90;;;;;;5025849;28;20053;-86
2023/08/05 05:34:51;;;;;;;8.65;4.65;;;13.90;99.90;;;;;;5018695;28;20044;-85
2023/08/05 05:37:17;;;;;;;8.77;4.35;;;14.00;99.90;;;;;;5037081;28;20029;-85
2023/08/05 05:39:44;;;;;;;6.68;4.85;;;14.10;99.90;;;;;;5037393;28;20053;-85
2023/08/05 05:42:10;;;;;;;6.35;4.63;;;14.20;99.90;;;;;;5036576;28;20185;-85
2023/08/05 05:44:38;;;;;;;7.20;4.82;;;14.30;99.90;;;;;;5041180;28;20029;-85
2023/08/05 05:47:11;;;;;;;9.90;6.13;;;14.40;99.90;;;;;;5027720;28;20171;-85
2023/08/05 05:49:37;;;;;;;12.07;6.50;;;14.50;99.90;;;;;;5036151;28;20049;-84
2023/08/05 05:52:04;;;;;;;9.43;5.47;;;14.60;99.90;;;;;;5038259;28;20040;-84
2023/08/05 05:54:29;;;;;;;5.30;3.72;;;14.80;99.90;;;;;;5018467;28;20044;-83
2023/08/05 05:56:55;;;;;;;6.53;3.60;;;14.90;99.90;;;;;;5034907;28;20060;-82
2023/08/05 05:59:21;;;;;;;7.93;4.70;;;14.90;99.90;;;;;;5035532;28;20071;-84
2023/08/05 06:01:47;;;;;;;4.53;3.63;;;15.00;99.90;;;;;;5061510;28;20044;-84
2023/08/05 06:04:12;;;;;;;4.63;3.47;;;15.00;99.90;;;;;;5008077;28;20033;-85
2023/08/05 06:06:38;;;;;;;4.70;3.50;;;15.00;99.90;;;;;;5036076;28;20033;-84
2023/08/05 06:09:04;;;;;;;5.45;3.50;;;15.00;99.90;;;;;;5027756;28;20120;-85
2023/08/05 06:11:33;;;;;;;6.22;3.72;;;15.00;99.90;;;;;;5039904;28;20041;-84
2023/08/05 06:13:59;;;;;;;6.60;4.68;;;15.10;99.90;;;;;;5040293;28;20033;-84
2023/08/05 06:16:25;;;;;;;6.65;3.83;;;15.20;99.90;;;;;;5056147;28;20036;-85
2023/08/05 06:18:50;;;;;;;5.05;3.53;;;15.40;99.90;;;;;;5032879;28;20045;-85
2023/08/05 06:21:16;;;;;;;3.72;3.20;;;15.50;99.90;;;;;;5058514;28;20058;-85
2023/08/05 06:23:42;;;;;;;9.23;3.35;;;15.60;99.90;;;;;;5030696;28;20037;-84
2023/08/05 06:26:07;;;;;;;6.80;3.47;;;15.60;99.90;;;;;;5045217;28;20480;-85
2023/08/05 06:28:33;;;;;;;3.65;3.15;;;15.70;99.90;;;;;;5041606;28;20106;-86
2023/08/05 06:30:59;;;;;;;5.55;3.10;;;15.90;99.90;;;;;;5052841;28;20080;-86
2023/08/05 06:33:24;;;;;;;3.83;2.67;;;16.00;99.90;;;;;;5017388;28;20033;-84
2023/08/05 06:35:50;;;;;;;3.95;3.03;;;16.10;99.90;;;;;;5036473;28;20124;-86
2023/08/05 06:38:16;;;;;;;4.70;3.10;;;16.00;99.90;;;;;;5038304;28;20490;-86
2023/08/05 06:40:42;;;;;;;6.03;2.92;;;16.00;99.90;;;;;;5034992;28;20060;-86
2023/08/05 06:43:07;;;;;;;5.88;3.33;;;16.00;99.90;;;;;;5037589;28;20048;-86
2023/08/05 06:45:33;;;;;;;6.30;3.15;;;16.00;99.90;;;;;;5039988;28;20049;-85
2023/08/05 06:47:59;;;;;;;4.00;2.67;;;16.10;99.90;;;;;;5049370;28;20044;-86
2023/08/05 06:50:24;;;;;;;4.60;2.97;;;16.10;99.90;;;;;;5024348;28;20033;-85
2023/08/05 06:52:50;;;;;;;4.95;2.75;;;16.30;99.90;;;;;;5035589;28;20037;-86
2023/08/05 06:55:18;;;;;;;5.63;3.00;;;16.40;99.90;;;;;;5030899;28;20519;-85
2023/08/05 06:57:48;;;;;;;5.80;3.13;;;16.60;99.90;;;;;;5052868;28;20063;-85
2023/08/05 07:00:14;;;;;;;4.75;2.90;;;16.60;99.90;;;;;;5048736;28;20094;-85
2023/08/05 07:02:40;;;;;;;5.18;2.80;;;16.70;99.90;;;;;;5046922;28;20040;-86
2023/08/05 07:05:05;;;;;;;3.40;2.78;;;16.70;99.90;;;;;;5030952;28;20431;-86
2023/08/05 07:07:31;;;;;;;4.30;3.00;;;16.70;99.90;;;;;;5054494;28;20066;-87
2023/08/05 07:10:01;;;;;;;4.78;2.97;;;16.70;99.90;;;;;;5022676;28;20119;-87
2023/08/05 07:12:27;;;;;;;7.65;2.88;;;16.60;99.90;;;;;;5051287;28;20041;-87
2023/08/05 07:14:54;;;;;;;4.95;3.10;;;16.70;99.90;;;;;;5034521;28;20052;-88
2023/08/05 07:17:20;;;;;;;5.53;3.30;;;16.70;99.90;;;;;;5051893;28;20067;-88
2023/08/05 07:19:46;;;;;;;4.85;3.15;;;16.70;99.90;;;;;;5035544;28;20496;-86
2023/08/05 07:22:12;;;;;;;3.55;2.55;;;16.70;99.90;;;;;;5038730;28;20621;-87
2023/08/05 07:24:37;;;;;;;3.30;3.00;;;16.70;99.90;;;;;;5013367;28;20051;-87
2023/08/05 07:27:04;;;;;;;3.95;3.05;;;16.70;99.90;;;;;;5049443;28;20033;-86
2023/08/05 07:29:30;;;;;;;4.80;3.15;;;16.70;99.90;;;;;;5037685;28;20255;-87
2023/08/05 07:31:55;;;;;;;5.63;3.15;;;16.70;99.90;;;;;;5040908;28;20087;-86
2023/08/05 07:34:22;;;;;;;6.10;3.13;;;16.70;99.90;;;;;;5028195;28;20771;-86
2023/08/05 07:36:48;;;;;;;6.00;3.50;;;16.80;99.90;;;;;;5042448;28;20124;-86
2023/08/05 07:39:13;;;;;;;5.20;3.53;;;16.80;99.90;;;;;;5019375;28;20463;-88
2023/08/05 07:41:39;;;;;;;5.28;2.88;;;16.80;99.90;;;;;;5019037;28;20123;-87
2023/08/05 07:44:07;;;;;;;7.90;3.67;;;16.80;99.90;;;;;;5056615;28;20039;-87
2023/08/05 07:46:37;;;;;;;5.55;3.10;;;16.80;99.90;;;;;;5034856;28;20519;-86
2023/08/05 07:49:03;;;;;;;6.55;3.45;;;16.80;99.90;;;;;;5035450;28;20120;-87
2023/08/05 07:51:30;;;;;;;5.53;3.33;;;16.90;99.90;;;;;;5035188;28;21385;-87
2023/08/05 07:53:57;;;;;;;6.55;3.65;;;17.00;99.90;;;;;;5036523;28;20374;-87
2023/08/05 07:56:23;;;;;;;5.93;3.53;;;17.20;99.90;;;;;;5062663;28;20041;-86
2023/08/05 07:58:49;;;;;;;6.63;3.42;;;17.20;99.90;;;;;;5029892;28;20069;-86
2023/08/05 08:01:22;;;;;;;5.25;3.00;;;17.30;99.90;;;;;;5030421;28;20072;-86
2023/08/05 08:03:56;;;;;;;4.30;3.10;;;17.30;99.90;;;;;;5024809;28;20047;-85
2023/08/05 08:06:22;;;;;;;7.60;2.90;;;17.40;99.90;;;;;;5022408;28;20102;-87
2023/08/05 08:08:47;;;;;;;5.28;3.33;;;17.60;99.90;;;;;;5016483;28;20033;-86
2023/08/05 08:11:13;;;;;;;6.10;2.80;;;17.80;99.90;;;;;;5019568;28;20032;-87
2023/08/05 08:13:40;;;;;;;3.85;2.55;;;17.90;99.90;;;;;;5050018;28;20104;-87
2023/08/05 08:16:07;;;;;;;3.33;2.72;;;17.90;99.90;;;;;;5027350;28;20504;-86
2023/08/05 08:18:32;;;;;;;5.30;2.80;;;17.90;99.90;;;;;;5052767;28;20052;-84
2023/08/05 08:20:59;;;;;;;4.85;2.67;;;17.80;99.90;;;;;;5033739;28;20049;-85
2023/08/05 08:23:25;;;;;;;4.85;2.97;;;17.70;99.90;;;;;;5023127;28;20158;-86
2023/08/05 08:25:51;;;;;;;4.43;2.85;;;17.70;99.90;;;;;;5033594;28;20037;-85
2023/08/05 08:28:16;;;;;;;5.75;2.75;;;17.60;99.90;;;;;;5032098;28;20036;-86
2023/08/05 08:30:56;;;;;;;3.30;2.60;;;17.60;99.90;;;;;;5029010;28;20034;-85
2023/08/05 08:33:24;;;;;;;5.60;2.67;;;17.50;99.90;;;;;;5025514;28;20044;-85
2023/08/05 08:35:50;;;;;;;4.88;2.88;;;17.50;99.90;;;;;;5042426;28;20052;-85
2023/08/05 08:38:19;;;;;;;3.35;2.80;;;17.50;99.90;;;;;;5030081;28;20451;-85
2023/08/05 08:40:49;;;;;;;5.50;2.90;;;17.60;99.90;;;;;;5030734;28;20072;-86
2023/08/05 08:43:19;;;;;;;5.32;2.65;;;17.70;99.90;;;;;;5032422;28;20036;-87
2023/08/05 08:45:47;;;;;;;4.03;2.58;;;17.70;99.90;;;;;;5018255;28;20079;-86
2023/08/05 08:48:15;;;;;;;4.20;2.50;;;17.80;99.90;;;;;;5053014;28;20441;-83
2023/08/05 08:50:43;;;;;;;4.32;2.60;;;17.80;99.90;;;;;;5031482;28;20346;-86
2023/08/05 08:53:12;;;;;;;5.40;2.35;;;17.90;99.90;;;;;;5027075;28;20123;-85
2023/08/05 08:55:38;;;;;;;4.63;2.42;;;18.00;99.90;;;;;;5053153;28;20061;-84
2023/08/05 08:58:04;;;;;;;4.88;2.78;;;18.20;99.90;;;;;;5015205;28;20496;-87
2023/08/05 09:00:32;;;;;;;3.13;2.58;;;18.30;99.90;;;;;;5031012;28;20077;-85
2023/08/05 09:03:00;;;;;;;3.55;2.60;;;18.30;99.90;;;;;;5019132;28;20047;-85
2023/08/05 09:05:34;;;;;;;5.43;2.78;;;18.30;99.90;;;;;;5069534;28;20130;-86
2023/08/05 09:08:02;;;;;;;2.60;2.40;;;18.50;99.90;;;;;;5053749;28;20041;-84
2023/08/05 09:10:28;;;;;;;3.55;2.55;;;18.50;99.90;;;;;;5037007;28;20044;-85
2023/08/05 09:12:57;;;;;;;5.25;2.50;;;18.50;99.90;;;;;;5053570;28;20048;-86
2023/08/05 09:15:33;;;;;;;4.93;2.97;;;18.40;99.90;;;;;;5037278;28;20549;-85
2023/08/05 09:18:00;;;;;;;3.10;2.50;;;18.40;99.90;;;;;;5037251;28;20037;-86
2023/08/05 09:20:27;;;;;;;3.75;2.58;;;18.60;99.90;;;;;;5036772;28;20048;-85
2023/08/05 09:22:54;;;;;;;2.88;2.50;;;18.70;99.90;;;;;;5020375;28;20076;-84
2023/08/05 09:25:21;;;;;;;2.78;2.22;;;18.90;99.90;;;;;;5053724;28;20576;-84
2023/08/05 09:27:47;;;;;;;3.33;2.65;;;19.00;99.90;;;;;;5037348;28;20098;-86
2023/08/05 09:30:17;;;;;;;4.60;2.40;;;19.00;99.90;;;;;;5067111;28;20047;-83
2023/08/05 09:32:44;;;;;;;5.32;2.60;;;19.00;99.90;;;;;;5053094;28;20051;-85
2023/08/05 09:35:10;;;;;;;3.17;2.67;;;19.00;99.90;;;;;;5072153;28;20048;-85
2023/08/05 09:37:40;;;;;;;3.75;2.58;;;19.00;99.90;;;;;;5039138;28;20601;-85
2023/08/05 09:40:28;;;;;;;3.60;2.45;;;19.00;99.90;;;;;;5035919;28;20542;-84
2023/08/05 09:42:59;;;;;;;3.40;2.33;;;19.00;99.90;;;;;;5036778;28;20033;-86
2023/08/05 09:45:27;;;;;;;6.35;2.60;;;19.00;99.90;;;;;;5056412;28;20032;-86
2023/08/05 09:48:10;;;;;;;4.65;2.40;;;19.00;99.90;;;;;;5036953;28;20184;-86
2023/08/05 09:50:37;;;;;;;4.53;3.03;;;19.10;99.90;;;;;;5036883;28;20393;-85
2023/08/05 09:53:08;;;;;;;3.10;2.17;;;19.10;99.90;;;;;;5037013;28;20444;-84
2023/08/05 09:55:36;;;;;;;3.63;2.33;;;19.00;99.90;;;;;;5036914;28;20592;-84
2023/08/05 09:58:07;;;;;;;4.55;2.30;;;18.90;99.90;;;;;;5054652;28;20388;-86
2023/08/05 10:00:35;;;;;;;3.20;2.75;;;18.80;99.90;;;;;;5061240;28;20047;-84
2023/08/05 10:03:07;;;;;;;3.65;2.38;;;18.70;99.90;;;;;;5073106;28;20129;-85
2023/08/05 10:05:34;;;;;;;4.55;2.60;;;18.70;99.90;;;;;;5041075;28;20029;-85
2023/08/05 10:08:00;;;;;;;3.75;2.75;;;18.60;99.90;;;;;;5036738;28;20406;-85
2023/08/05 10:10:29;;;;;;;3.38;2.42;;;18.70;99.90;;;;;;5053295;28;20048;-86
2023/08/05 10:13:08;;;;;;;5.78;2.60;;;18.70;99.90;;;;;;5053199;28;20053;-86
2023/08/05 10:15:38;;;;;;;3.67;2.80;;;18.80;99.90;;;;;;5048303;28;20120;-84
2023/08/05 10:18:11;;;;;;;4.80;2.80;;;18.90;99.90;;;;;;5030643;28;20045;-83
2023/08/05 10:20:37;;;;;;;3.97;2.83;;;18.90;99.90;;;;;;5045013;28;20124;-84
2023/08/05 10:23:13;;;;;;;4.35;2.95;;;19.00;99.90;;;;;;5052738;28;20032;-86
2023/08/05 10:25:44;;;;;;;4.60;2.65;;;19.00;99.90;;;;;;5040968;28;20615;-86
2023/08/05 10:28:31;;;;;;;;;;;19.10;99.90;;;;;;5036698;28;20037;-85
2023/08/05 10:30:57;;;;;;;3.47;2.47;;;19.20;99.90;;;;;;5052464;28;19921;-86
2023/08/05 10:33:24;;;;;;;3.50;2.47;;;19.50;99.90;;;;;;5052393;28;20037;-83
2023/08/05 10:35:59;;;;;;;4.18;2.42;;;19.70;99.90;;;;;;5044456;28;20399;-85
2023/08/05 10:38:25;;;;;;;2.42;2.20;;;19.90;99.90;;;;;;5063366;28;20131;-85
2023/08/05 10:41:02;;;;;;;3.50;2.70;;;20.10;99.90;;;;;;5049713;28;20132;-84
2023/08/05 10:43:34;;;;;;;3.22;2.28;;;20.10;99.90;;;;;;5062843;28;20033;-85
2023/08/05 10:46:09;;;;;;;4.38;2.33;;;20.40;99.90;;;;;;5052653;28;20060;-83
2023/08/05 10:48:38;;;;;;;2.97;2.10;;;20.30;99.90;;;;;;5052489;28;20134;-86
2023/08/05 10:51:11;;;;;;;5.50;2.70;;;20.30;99.90;;;;;;5045116;28;20033;-85
2023/08/05 10:53:38;;;;;;;3.15;2.30;;;20.50;99.90;;;;;;5052419;28;20049;-83
2023/08/05 10:56:10;;;;;;;3.75;2.20;;;20.40;99.90;;;;;;5035434;28;20750;-86
2023/08/05 10:58:37;;;;;;;4.75;2.20;;;20.60;99.90;;;;;;5035853;28;20443;-85
2023/08/05 11:01:05;;;;;;;2.90;2.40;;;20.70;99.90;;;;;;5053120;28;20481;-86
2023/08/05 11:03:52;;;;;;;4.20;2.35;;;20.80;99.90;;;;;;5015970;28;20041;-85
2023/08/05 11:06:25;;;;;;;2.67;2.47;;;20.90;99.90;;;;;;5031963;28;20038;-83
2023/08/05 11:08:51;;;;;;;3.85;2.50;;;20.60;99.90;;;;;;5025776;28;20045;-87
2023/08/05 11:11:18;;;;;;;3.38;2.47;;;20.40;99.90;;;;;;5038948;28;20131;-87
2023/08/05 11:13:47;;;;;;;3.78;2.33;;;20.30;99.90;;;;;;5066489;28;20300;-87
2023/08/05 11:16:15;;;;;;;2.60;2.40;;;20.10;99.90;;;;;;5041193;28;20120;-87
2023/08/05 11:18:45;;;;;;;3.90;2.88;;;20.10;99.90;;;;;;5050127;28;20049;-85
2023/08/05 11:21:15;;;;;;;4.27;2.50;;;20.30;99.90;;;;;;5018846;28;20044;-87
2023/08/05 11:23:44;;;;;;;3.33;2.95;;;20.40;99.90;;;;;;5051305;28;20045;-84
2023/08/05 11:26:10;;;;;;;5.35;3.08;;;20.50;99.90;;;;;;5034223;28;20037;-86
2023/08/05 11:28:41;;;;;;;4.07;2.97;;;20.60;99.90;;;;;;5018020;28;20512;-85
2023/08/05 11:31:07;;;;;;;3.35;2.70;;;20.50;99.90;;;;;;5034862;28;20047;-85
2023/08/05 11:33:33;;;;;;;2.97;2.65;;;20.50;99.90;;;;;;5051602;28;20132;-85
2023/08/05 11:35:59;;;;;;;3.28;2.92;;;20.30;99.90;;;;;;5051027;28;20392;-84
2023/08/05 11:38:25;;;;;;;5.45;3.03;;;20.30;99.90;;;;;;5051254;28;20045;-86
2023/08/05 11:40:57;;;;;;;3.75;3.13;;;20.30;99.90;;;;;;5034017;28;20055;-86
2023/08/05 11:43:24;;;;;;;4.75;4.15;;;20.20;99.90;;;;;;5028808;28;20038;-83
2023/08/05 11:45:51;;;;;;;5.30;4.38;;;20.10;99.90;;;;;;5040704;28;20052;-86
2023/08/05 11:48:24;;;;;;;6.95;4.35;;;20.10;99.90;;;;;;5034275;28;20111;-85
2023/08/05 11:51:01;;;;;;;5.22;4.25;;;20.20;99.90;;;;;;5051387;28;20098;-86
2023/08/05 11:53:28;;;;;;;6.20;4.78;;;20.20;99.90;;;;;;5051027;28;20450;-84
2023/08/05 11:55:54;;;;;;;5.78;5.10;;;20.20;99.90;;;;;;5050829;28;20424;-84
2023/08/05 11:58:23;;;;;;;5.90;4.95;;;20.30;99.90;;;;;;5034129;28;20076;-83
2023/08/05 12:00:53;;;;;;;6.70;5.22;;;20.30;99.90;;;;;;5032373;28;20035;-86
2023/08/05 12:03:19;;;;;;;6.97;5.07;;;20.30;99.90;;;;;;5017827;28;20488;-84
2023/08/05 12:05:46;;;;;;;7.18;5.10;;;20.30;99.90;;;;;;5050554;28;20044;-85
2023/08/05 12:08:13;;;;;;;8.23;6.38;;;20.30;99.90;;;;;;5033959;28;20545;-84
2023/08/05 12:10:39;;;;;;;9.43;6.15;;;20.30;99.90;;;;;;5018057;28;20045;-85
2023/08/05 12:13:08;;;;;;;8.23;7.38;;;20.20;99.90;;;;;;5034194;28;20037;-84
2023/08/05 12:15:34;;;;;;;8.80;7.80;;;20.10;99.90;;;;;;5041422;28;20040;-87
2023/08/05 12:18:02;;;;;;;10.77;8.23;;;20.10;99.90;;;;;;5069324;28;20050;-85
2023/08/05 12:20:36;;;;;;;10.63;9.10;;;20.10;99.90;;;;;;5049960;28;20040;-85
2023/08/05 12:23:03;;;;;;;9.48;8.38;;;20.00;99.90;;;;;;5033719;28;20575;-88
2023/08/05 12:25:30;;;;;;;9.63;8.50;;;20.00;99.90;;;;;;5030487;28;20385;-85
2023/08/05 12:27:57;;;;;;;9.98;8.43;;;19.90;99.90;;;;;;5021980;28;20037;-87
2023/08/05 12:30:23;;;;;;;9.68;8.68;;;19.80;99.90;;;;;;5017627;28;20048;-84
2023/08/05 12:32:48;;;;;;;10.38;9.30;;;19.80;99.90;;;;;;5033732;28;20449;-86
2023/08/05 12:35:14;;;;;;;10.55;8.93;;;19.80;99.90;;;;;;5033546;28;20123;-85
2023/08/05 12:37:41;;;;;;;11.13;9.95;;;19.70;99.90;;;;;;5031255;28;20040;-85
2023/08/05 12:40:09;;;;;;;9.82;8.65;;;19.70;99.90;;;;;;5019393;28;20155;-85
2023/08/05 12:42:35;;;;;;;11.85;8.77;;;19.70;99.90;;;;;;5033571;28;20047;-85
2023/08/05 12:45:03;;;;;;;9.88;7.97;;;19.70;99.90;;;;;;5033139;28;20087;-84